sensor_id;sensor_type;location;lat;lon;timestamp;P1;durP1;ratioP1;P2;durP2;ratioP2
24483;SDS011;12643;51.620;7.548;2023-08-12T00:01:52;13.43;;;10.55;;
24483;SDS011;12643;51.620;7.548;2023-08-12T00:04:21;21.40;;;11.60;;
24483;SDS011;12643;51.620;7.548;2023-08-12T00:06:49;16.02;;;11.75;;
24483;SDS011;12643;51.620;7.548;2023-08-12T00:09:17;17.77;;;13.30;;
24483;SDS011;12643;51.620;7.548;2023-08-12T00:11:45;18.10;;;12.10;;
24483;SDS011;12643;51.620;7.548;2023-08-12T00:14:13;23.92;;;13.38;;
24483;SDS011;12643;51.620;7.548;2023-08-12T00:16:42;17.10;;;12.13;;
24483;SDS011;12643;51.620;7.548;2023-08-12T00:19:10;14.35;;;12.02;;
24483;SDS011;12643;51.620;7.548;2023-08-12T00:21:39;15.80;;;12.52;;
24483;SDS011;12643;51.620;7.548;2023-08-12T00:24:08;13.00;;;10.55;;
24483;SDS011;12643;51.620;7.548;2023-08-12T00:26:36;17.02;;;12.55;;
24483;SDS011;12643;51.620;7.548;2023-08-12T00:29:04;13.27;;;10.10;;
24483;SDS011;12643;51.620;7.548;2023-08-12T00:31:32;16.38;;;10.85;;
24483;SDS011;12643;51.620;7.548;2023-08-12T00:34:01;15.10;;;10.95;;
24483;SDS011;12643;51.620;7.548;2023-08-12T00:36:29;15.43;;;11.20;;
24483;SDS011;12643;51.620;7.548;2023-08-12T00:38:57;13.07;;;9.88;;
24483;SDS011;12643;51.620;7.548;2023-08-12T00:41:25;18.88;;;11.45;;
24483;SDS011;12643;51.620;7.548;2023-08-12T00:43:54;13.40;;;10.43;;
24483;SDS011;12643;51.620;7.548;2023-08-12T00:46:22;15.52;;;10.02;;
24483;SDS011;12643;51.620;7.548;2023-08-12T00:48:51;13.57;;;9.98;;
24483;SDS011;12643;51.620;7.548;2023-08-12T00:51:20;16.52;;;9.23;;
24483;SDS011;12643;51.620;7.548;2023-08-12T00:53:48;13.27;;;8.77;;
24483;SDS011;12643;51.620;7.548;2023-08-12T00:56:18;10.80;;;8.60;;
24483;SDS011;12643;51.620;7.548;2023-08-12T00:58:47;13.50;;;8.43;;
24483;SDS011;12643;51.620;7.548;2023-08-12T01:01:15;10.88;;;9.23;;
24483;SDS011;12643;51.620;7.548;2023-08-12T01:03:44;12.48;;;9.02;;
24483;SDS011;12643;51.620;7.548;2023-08-12T01:06:12;10.77;;;9.63;;
24483;SDS011;12643;51.620;7.548;2023-08-12T01:08:42;10.07;;;8.00;;
24483;SDS011;12643;51.620;7.548;2023-08-12T01:11:12;9.52;;;7.65;;
24483;SDS011;12643;51.620;7.548;2023-08-12T01:13:46;13.05;;;10.25;;
24483;SDS011;12643;51.620;7.548;2023-08-12T01:18:46;8.55;;;7.55;;
24483;SDS011;12643;51.620;7.548;2023-08-12T01:21:16;13.67;;;10.83;;
24483;SDS011;12643;51.620;7.548;2023-08-12T01:23:49;12.70;;;10.52;;
24483;SDS011;12643;51.620;7.548;2023-08-12T01:26:17;9.88;;;7.68;;
24483;SDS011;12643;51.620;7.548;2023-08-12T01:28:45;10.48;;;7.70;;
24483;SDS011;12643;51.620;7.548;2023-08-12T01:31:15;10.00;;;9.00;;
24483;SDS011;12643;51.620;7.548;2023-08-12T01:33:46;12.48;;;8.30;;
24483;SDS011;12643;51.620;7.548;2023-08-12T01:36:20;8.82;;;7.80;;
24483;SDS011;12643;51.620;7.548;2023-08-12T01:38:49;11.40;;;9.27;;
24483;SDS011;12643;51.620;7.548;2023-08-12T01:41:18;10.32;;;9.23;;
24483;SDS011;12643;51.620;7.548;2023-08-12T01:43:48;13.32;;;10.30;;
24483;SDS011;12643;51.620;7.548;2023-08-12T01:46:16;13.10;;;11.63;;
24483;SDS011;12643;51.620;7.548;2023-08-12T01:48:44;14.75;;;11.82;;
24483;SDS011;12643;51.620;7.548;2023-08-12T01:51:12;10.65;;;9.30;;
24483;SDS011;12643;51.620;7.548;2023-08-12T01:53:40;10.45;;;9.05;;
24483;SDS011;12643;51.620;7.548;2023-08-12T01:56:10;14.10;;;10.35;;
24483;SDS011;12643;51.620;7.548;2023-08-12T01:58:38;12.57;;;10.77;;
24483;SDS011;12643;51.620;7.548;2023-08-12T02:01:06;10.57;;;8.98;;
24483;SDS011;12643;51.620;7.548;2023-08-12T02:03:34;10.70;;;9.63;;
24483;SDS011;12643;51.620;7.548;2023-08-12T02:06:02;10.18;;;8.93;;
24483;SDS011;12643;51.620;7.548;2023-08-12T02:08:30;12.23;;;9.50;;
24483;SDS011;12643;51.620;7.548;2023-08-12T02:10:57;11.45;;;9.13;;
24483;SDS011;12643;51.620;7.548;2023-08-12T02:13:27;10.93;;;9.82;;
24483;SDS011;12643;51.620;7.548;2023-08-12T02:15:55;9.75;;;8.85;;
24483;SDS011;12643;51.620;7.548;2023-08-12T02:18:23;10.82;;;9.73;;
24483;SDS011;12643;51.620;7.548;2023-08-12T02:20:51;10.88;;;9.50;;
24483;SDS011;12643;51.620;7.548;2023-08-12T02:23:19;11.02;;;9.93;;
24483;SDS011;12643;51.620;7.548;2023-08-12T02:25:47;12.15;;;9.13;;
24483;SDS011;12643;51.620;7.548;2023-08-12T02:28:15;12.35;;;10.30;;
24483;SDS011;12643;51.620;7.548;2023-08-12T02:30:45;14.98;;;13.48;;
24483;SDS011;12643;51.620;7.548;2023-08-12T02:33:12;11.25;;;10.15;;
24483;SDS011;12643;51.620;7.548;2023-08-12T02:35:41;12.52;;;11.27;;
24483;SDS011;12643;51.620;7.548;2023-08-12T02:38:09;12.57;;;11.27;;
24483;SDS011;12643;51.620;7.548;2023-08-12T02:40:37;15.13;;;13.60;;
24483;SDS011;12643;51.620;7.548;2023-08-12T02:43:05;13.32;;;10.15;;
24483;SDS011;12643;51.620;7.548;2023-08-12T02:45:33;14.98;;;12.75;;
24483;SDS011;12643;51.620;7.548;2023-08-12T02:48:03;13.48;;;12.05;;
24483;SDS011;12643;51.620;7.548;2023-08-12T02:50:31;16.23;;;14.52;;
24483;SDS011;12643;51.620;7.548;2023-08-12T02:52:59;18.75;;;15.38;;
24483;SDS011;12643;51.620;7.548;2023-08-12T02:55:28;16.13;;;14.02;;
24483;SDS011;12643;51.620;7.548;2023-08-12T02:57:57;15.65;;;13.95;;
24483;SDS011;12643;51.620;7.548;2023-08-12T03:00:25;13.93;;;11.98;;
24483;SDS011;12643;51.620;7.548;2023-08-12T03:02:53;14.85;;;12.43;;
24483;SDS011;12643;51.620;7.548;2023-08-12T03:05:22;19.08;;;15.57;;
24483;SDS011;12643;51.620;7.548;2023-08-12T03:07:50;16.85;;;14.68;;
24483;SDS011;12643;51.620;7.548;2023-08-12T03:10:18;18.98;;;15.13;;
24483;SDS011;12643;51.620;7.548;2023-08-12T03:12:46;15.38;;;12.50;;
24483;SDS011;12643;51.620;7.548;2023-08-12T03:15:14;15.63;;;12.73;;
24483;SDS011;12643;51.620;7.548;2023-08-12T03:17:42;15.50;;;13.60;;
24483;SDS011;12643;51.620;7.548;2023-08-12T03:20:10;14.50;;;13.00;;
24483;SDS011;12643;51.620;7.548;2023-08-12T03:22:39;15.70;;;13.52;;
24483;SDS011;12643;51.620;7.548;2023-08-12T03:25:07;15.35;;;12.65;;
24483;SDS011;12643;51.620;7.548;2023-08-12T03:27:36;17.40;;;15.68;;
24483;SDS011;12643;51.620;7.548;2023-08-12T03:30:05;17.15;;;14.57;;
24483;SDS011;12643;51.620;7.548;2023-08-12T03:32:33;14.50;;;13.00;;
24483;SDS011;12643;51.620;7.548;2023-08-12T03:35:01;15.52;;;13.48;;
24483;SDS011;12643;51.620;7.548;2023-08-12T03:37:29;17.27;;;13.55;;
24483;SDS011;12643;51.620;7.548;2023-08-12T03:39:59;21.65;;;19.25;;
24483;SDS011;12643;51.620;7.548;2023-08-12T03:42:27;17.30;;;15.50;;
24483;SDS011;12643;51.620;7.548;2023-08-12T03:44:55;20.33;;;18.13;;
24483;SDS011;12643;51.620;7.548;2023-08-12T03:47:23;18.70;;;15.02;;
24483;SDS011;12643;51.620;7.548;2023-08-12T03:49:51;16.80;;;15.02;;
24483;SDS011;12643;51.620;7.548;2023-08-12T03:52:20;17.77;;;15.85;;
24483;SDS011;12643;51.620;7.548;2023-08-12T03:54:48;21.08;;;17.80;;
24483;SDS011;12643;51.620;7.548;2023-08-12T03:57:17;16.30;;;14.70;;
24483;SDS011;12643;51.620;7.548;2023-08-12T03:59:45;17.35;;;15.57;;
24483;SDS011;12643;51.620;7.548;2023-08-12T04:02:13;21.83;;;17.83;;
24483;SDS011;12643;51.620;7.548;2023-08-12T04:04:41;16.38;;;13.75;;
24483;SDS011;12643;51.620;7.548;2023-08-12T04:07:09;22.55;;;19.25;;
24483;SDS011;12643;51.620;7.548;2023-08-12T04:09:37;18.92;;;16.95;;
24483;SDS011;12643;51.620;7.548;2023-08-12T04:12:06;25.90;;;21.25;;
24483;SDS011;12643;51.620;7.548;2023-08-12T04:14:35;17.02;;;15.23;;
24483;SDS011;12643;51.620;7.548;2023-08-12T04:17:03;21.17;;;18.25;;
24483;SDS011;12643;51.620;7.548;2023-08-12T04:19:31;18.38;;;15.80;;
24483;SDS011;12643;51.620;7.548;2023-08-12T04:21:59;20.05;;;17.92;;
24483;SDS011;12643;51.620;7.548;2023-08-12T04:24:27;18.83;;;16.88;;
24483;SDS011;12643;51.620;7.548;2023-08-12T04:26:54;20.80;;;18.45;;
24483;SDS011;12643;51.620;7.548;2023-08-12T04:29:22;16.00;;;14.38;;
24483;SDS011;12643;51.620;7.548;2023-08-12T04:31:52;18.00;;;15.20;;
24483;SDS011;12643;51.620;7.548;2023-08-12T04:34:20;16.60;;;14.63;;
24483;SDS011;12643;51.620;7.548;2023-08-12T04:36:48;17.88;;;15.98;;
24483;SDS011;12643;51.620;7.548;2023-08-12T04:39:16;20.98;;;16.48;;
24483;SDS011;12643;51.620;7.548;2023-08-12T04:41:43;19.08;;;13.88;;
24483;SDS011;12643;51.620;7.548;2023-08-12T04:44:12;22.83;;;19.52;;
24483;SDS011;12643;51.620;7.548;2023-08-12T04:46:40;16.35;;;14.25;;
24483;SDS011;12643;51.620;7.548;2023-08-12T04:49:09;14.23;;;12.73;;
24483;SDS011;12643;51.620;7.548;2023-08-12T04:51:37;16.00;;;13.23;;
24483;SDS011;12643;51.620;7.548;2023-08-12T04:54:05;14.60;;;12.93;;
24483;SDS011;12643;51.620;7.548;2023-08-12T04:56:33;17.55;;;14.27;;
24483;SDS011;12643;51.620;7.548;2023-08-12T04:59:01;14.73;;;13.32;;
24483;SDS011;12643;51.620;7.548;2023-08-12T05:01:29;18.58;;;15.23;;
24483;SDS011;12643;51.620;7.548;2023-08-12T05:03:57;21.25;;;17.63;;
24483;SDS011;12643;51.620;7.548;2023-08-12T05:06:26;14.55;;;11.98;;
24483;SDS011;12643;51.620;7.548;2023-08-12T05:08:55;16.63;;;14.15;;
24483;SDS011;12643;51.620;7.548;2023-08-12T05:11:23;15.95;;;13.98;;
24483;SDS011;12643;51.620;7.548;2023-08-12T05:13:51;12.35;;;11.00;;
24483;SDS011;12643;51.620;7.548;2023-08-12T05:16:19;16.05;;;14.00;;
24483;SDS011;12643;51.620;7.548;2023-08-12T05:18:46;15.25;;;13.73;;
24483;SDS011;12643;51.620;7.548;2023-08-12T05:21:14;15.70;;;14.07;;
24483;SDS011;12643;51.620;7.548;2023-08-12T05:23:44;13.23;;;11.85;;
24483;SDS011;12643;51.620;7.548;2023-08-12T05:26:12;15.25;;;13.70;;
24483;SDS011;12643;51.620;7.548;2023-08-12T05:28:40;15.13;;;13.70;;
24483;SDS011;12643;51.620;7.548;2023-08-12T05:31:08;18.35;;;16.42;;
24483;SDS011;12643;51.620;7.548;2023-08-12T05:33:37;22.02;;;19.35;;
24483;SDS011;12643;51.620;7.548;2023-08-12T05:36:05;17.85;;;15.77;;
24483;SDS011;12643;51.620;7.548;2023-08-12T05:38:34;16.20;;;14.50;;
24483;SDS011;12643;51.620;7.548;2023-08-12T05:41:03;18.52;;;16.58;;
24483;SDS011;12643;51.620;7.548;2023-08-12T05:43:33;14.75;;;13.25;;
24483;SDS011;12643;51.620;7.548;2023-08-12T05:46:00;16.70;;;14.43;;
24483;SDS011;12643;51.620;7.548;2023-08-12T05:48:28;20.40;;;14.18;;
24483;SDS011;12643;51.620;7.548;2023-08-12T05:50:56;16.02;;;14.35;;
24483;SDS011;12643;51.620;7.548;2023-08-12T05:53:24;21.88;;;18.45;;
24483;SDS011;12643;51.620;7.548;2023-08-12T05:55:52;17.00;;;14.73;;
24483;SDS011;12643;51.620;7.548;2023-08-12T05:58:21;17.00;;;15.20;;
24483;SDS011;12643;51.620;7.548;2023-08-12T06:00:49;17.77;;;15.40;;
24483;SDS011;12643;51.620;7.548;2023-08-12T06:03:18;16.42;;;14.10;;
24483;SDS011;12643;51.620;7.548;2023-08-12T06:05:46;15.65;;;13.85;;
24483;SDS011;12643;51.620;7.548;2023-08-12T06:08:14;17.52;;;14.02;;
24483;SDS011;12643;51.620;7.548;2023-08-12T06:10:43;19.77;;;17.73;;
24483;SDS011;12643;51.620;7.548;2023-08-12T06:13:11;17.65;;;15.85;;
24483;SDS011;12643;51.620;7.548;2023-08-12T06:15:41;19.42;;;16.02;;
24483;SDS011;12643;51.620;7.548;2023-08-12T06:18:08;23.27;;;20.27;;
24483;SDS011;12643;51.620;7.548;2023-08-12T06:20:36;18.17;;;16.15;;
24483;SDS011;12643;51.620;7.548;2023-08-12T06:23:04;16.85;;;14.88;;
24483;SDS011;12643;51.620;7.548;2023-08-12T06:25:32;20.05;;;17.77;;
24483;SDS011;12643;51.620;7.548;2023-08-12T06:28:02;14.70;;;11.75;;
24483;SDS011;12643;51.620;7.548;2023-08-12T06:30:31;14.82;;;13.23;;
24483;SDS011;12643;51.620;7.548;2023-08-12T06:33:00;14.27;;;12.82;;
24483;SDS011;12643;51.620;7.548;2023-08-12T06:35:28;15.05;;;12.00;;
24483;SDS011;12643;51.620;7.548;2023-08-12T06:37:56;14.63;;;12.80;;
24483;SDS011;12643;51.620;7.548;2023-08-12T06:40:25;14.82;;;12.85;;
24483;SDS011;12643;51.620;7.548;2023-08-12T06:42:53;12.98;;;11.13;;
24483;SDS011;12643;51.620;7.548;2023-08-12T06:45:21;14.95;;;11.70;;
24483;SDS011;12643;51.620;7.548;2023-08-12T06:47:49;13.15;;;11.95;;
24483;SDS011;12643;51.620;7.548;2023-08-12T06:50:18;14.25;;;11.77;;
24483;SDS011;12643;51.620;7.548;2023-08-12T06:52:46;14.38;;;12.85;;
24483;SDS011;12643;51.620;7.548;2023-08-12T06:55:15;10.60;;;9.55;;
24483;SDS011;12643;51.620;7.548;2023-08-12T06:57:43;14.15;;;12.77;;
24483;SDS011;12643;51.620;7.548;2023-08-12T07:00:12;11.13;;;8.85;;
24483;SDS011;12643;51.620;7.548;2023-08-12T07:02:40;13.23;;;9.57;;
24483;SDS011;12643;51.620;7.548;2023-08-12T07:05:08;9.63;;;8.70;;
24483;SDS011;12643;51.620;7.548;2023-08-12T07:07:38;8.07;;;7.28;;
24483;SDS011;12643;51.620;7.548;2023-08-12T07:10:07;8.17;;;7.37;;
24483;SDS011;12643;51.620;7.548;2023-08-12T07:12:35;9.45;;;6.90;;
24483;SDS011;12643;51.620;7.548;2023-08-12T07:15:04;10.15;;;8.13;;
24483;SDS011;12643;51.620;7.548;2023-08-12T07:17:33;7.80;;;6.30;;
24483;SDS011;12643;51.620;7.548;2023-08-12T07:20:00;7.82;;;6.70;;
24483;SDS011;12643;51.620;7.548;2023-08-12T07:22:30;7.72;;;6.85;;
24483;SDS011;12643;51.620;7.548;2023-08-12T07:24:59;8.38;;;7.05;;
24483;SDS011;12643;51.620;7.548;2023-08-12T07:27:27;6.78;;;6.00;;
24483;SDS011;12643;51.620;7.548;2023-08-12T07:29:55;6.32;;;5.65;;
24483;SDS011;12643;51.620;7.548;2023-08-12T07:32:23;6.05;;;4.80;;
24483;SDS011;12643;51.620;7.548;2023-08-12T07:34:51;5.35;;;4.80;;
24483;SDS011;12643;51.620;7.548;2023-08-12T07:37:19;6.25;;;5.20;;
24483;SDS011;12643;51.620;7.548;2023-08-12T07:39:47;7.65;;;4.93;;
24483;SDS011;12643;51.620;7.548;2023-08-12T07:42:19;5.18;;;4.60;;
24483;SDS011;12643;51.620;7.548;2023-08-12T07:44:47;6.80;;;5.10;;
24483;SDS011;12643;51.620;7.548;2023-08-12T07:47:15;6.13;;;5.25;;
24483;SDS011;12643;51.620;7.548;2023-08-12T07:49:44;5.90;;;4.03;;
24483;SDS011;12643;51.620;7.548;2023-08-12T07:52:12;6.82;;;4.25;;
24483;SDS011;12643;51.620;7.548;2023-08-12T07:54:40;6.18;;;4.65;;
24483;SDS011;12643;51.620;7.548;2023-08-12T07:57:07;5.88;;;4.78;;
24483;SDS011;12643;51.620;7.548;2023-08-12T07:59:37;5.13;;;4.15;;
24483;SDS011;12643;51.620;7.548;2023-08-12T08:02:06;6.82;;;3.72;;
24483;SDS011;12643;51.620;7.548;2023-08-12T08:04:34;4.97;;;4.05;;
24483;SDS011;12643;51.620;7.548;2023-08-12T08:07:02;5.00;;;4.28;;
24483;SDS011;12643;51.620;7.548;2023-08-12T08:09:30;4.82;;;4.30;;
24483;SDS011;12643;51.620;7.548;2023-08-12T08:11:59;5.40;;;3.85;;
24483;SDS011;12643;51.620;7.548;2023-08-12T08:14:27;4.35;;;3.60;;
24483;SDS011;12643;51.620;7.548;2023-08-12T08:16:57;7.15;;;4.57;;
24483;SDS011;12643;51.620;7.548;2023-08-12T08:19:25;4.18;;;3.45;;
24483;SDS011;12643;51.620;7.548;2023-08-12T08:21:52;4.20;;;3.58;;
24483;SDS011;12643;51.620;7.548;2023-08-12T08:24:21;5.45;;;3.72;;
24483;SDS011;12643;51.620;7.548;2023-08-12T08:26:49;5.70;;;3.65;;
24483;SDS011;12643;51.620;7.548;2023-08-12T08:29:17;5.72;;;3.58;;
24483;SDS011;12643;51.620;7.548;2023-08-12T08:31:46;5.68;;;4.10;;
24483;SDS011;12643;51.620;7.548;2023-08-12T08:34:17;5.85;;;4.20;;
24483;SDS011;12643;51.620;7.548;2023-08-12T08:36:45;5.60;;;3.92;;
24483;SDS011;12643;51.620;7.548;2023-08-12T08:39:14;6.47;;;3.63;;
24483;SDS011;12643;51.620;7.548;2023-08-12T08:41:42;4.25;;;3.42;;
24483;SDS011;12643;51.620;7.548;2023-08-12T08:44:14;4.75;;;3.67;;
24483;SDS011;12643;51.620;7.548;2023-08-12T08:46:44;4.15;;;3.10;;
24483;SDS011;12643;51.620;7.548;2023-08-12T08:49:13;3.80;;;3.35;;
24483;SDS011;12643;51.620;7.548;2023-08-12T08:51:44;5.00;;;3.55;;
24483;SDS011;12643;51.620;7.548;2023-08-12T08:54:14;8.30;;;3.60;;
24483;SDS011;12643;51.620;7.548;2023-08-12T08:56:43;5.47;;;3.85;;
24483;SDS011;12643;51.620;7.548;2023-08-12T08:59:11;4.32;;;3.03;;
24483;SDS011;12643;51.620;7.548;2023-08-12T09:01:39;7.47;;;3.72;;
24483;SDS011;12643;51.620;7.548;2023-08-12T09:04:07;5.05;;;3.28;;
24483;SDS011;12643;51.620;7.548;2023-08-12T09:06:39;3.55;;;2.83;;
24483;SDS011;12643;51.620;7.548;2023-08-12T09:09:12;3.67;;;2.97;;
24483;SDS011;12643;51.620;7.548;2023-08-12T09:11:43;5.10;;;2.95;;
24483;SDS011;12643;51.620;7.548;2023-08-12T09:14:18;3.05;;;2.65;;
24483;SDS011;12643;51.620;7.548;2023-08-12T09:16:46;3.60;;;2.72;;
24483;SDS011;12643;51.620;7.548;2023-08-12T09:19:17;2.92;;;2.60;;
24483;SDS011;12643;51.620;7.548;2023-08-12T09:21:48;4.50;;;2.40;;
24483;SDS011;12643;51.620;7.548;2023-08-12T09:24:23;3.58;;;2.78;;
24483;SDS011;12643;51.620;7.548;2023-08-12T09:26:51;3.30;;;2.55;;
24483;SDS011;12643;51.620;7.548;2023-08-12T09:29:22;6.13;;;2.88;;
24483;SDS011;12643;51.620;7.548;2023-08-12T09:31:50;6.75;;;3.15;;
24483;SDS011;12643;51.620;7.548;2023-08-12T09:34:18;3.30;;;2.75;;
24483;SDS011;12643;51.620;7.548;2023-08-12T09:36:48;2.63;;;2.42;;
24483;SDS011;12643;51.620;7.548;2023-08-12T09:39:16;5.25;;;2.83;;
24483;SDS011;12643;51.620;7.548;2023-08-12T09:41:45;3.00;;;2.80;;
24483;SDS011;12643;51.620;7.548;2023-08-12T09:44:13;4.25;;;3.10;;
24483;SDS011;12643;51.620;7.548;2023-08-12T09:46:42;3.38;;;3.08;;
24483;SDS011;12643;51.620;7.548;2023-08-12T09:49:10;3.83;;;2.85;;
24483;SDS011;12643;51.620;7.548;2023-08-12T09:51:38;3.05;;;2.72;;
24483;SDS011;12643;51.620;7.548;2023-08-12T09:54:09;4.03;;;2.65;;
24483;SDS011;12643;51.620;7.548;2023-08-12T09:56:38;3.90;;;2.75;;
24483;SDS011;12643;51.620;7.548;2023-08-12T09:59:08;4.25;;;2.63;;
24483;SDS011;12643;51.620;7.548;2023-08-12T10:01:37;2.50;;;2.30;;
24483;SDS011;12643;51.620;7.548;2023-08-12T10:04:08;6.03;;;2.65;;
24483;SDS011;12643;51.620;7.548;2023-08-12T10:06:39;2.97;;;2.67;;
24483;SDS011;12643;51.620;7.548;2023-08-12T10:09:09;4.38;;;2.30;;
24483;SDS011;12643;51.620;7.548;2023-08-12T10:11:37;2.38;;;2.17;;
24483;SDS011;12643;51.620;7.548;2023-08-12T10:14:06;3.30;;;2.55;;
24483;SDS011;12643;51.620;7.548;2023-08-12T10:16:36;2.72;;;2.25;;
24483;SDS011;12643;51.620;7.548;2023-08-12T10:19:05;4.30;;;2.08;;
24483;SDS011;12643;51.620;7.548;2023-08-12T10:21:33;2.10;;;1.90;;
24483;SDS011;12643;51.620;7.548;2023-08-12T10:24:01;2.83;;;2.15;;
24483;SDS011;12643;51.620;7.548;2023-08-12T10:26:34;3.92;;;2.20;;
24483;SDS011;12643;51.620;7.548;2023-08-12T10:29:03;2.38;;;2.10;;
24483;SDS011;12643;51.620;7.548;2023-08-12T10:31:32;2.70;;;2.00;;
24483;SDS011;12643;51.620;7.548;2023-08-12T10:34:01;2.10;;;1.90;;
24483;SDS011;12643;51.620;7.548;2023-08-12T10:36:29;1.70;;;1.60;;
24483;SDS011;12643;51.620;7.548;2023-08-12T10:39:00;1.90;;;1.80;;
24483;SDS011;12643;51.620;7.548;2023-08-12T10:41:28;2.63;;;2.08;;
24483;SDS011;12643;51.620;7.548;2023-08-12T10:44:05;2.00;;;1.80;;
24483;SDS011;12643;51.620;7.548;2023-08-12T10:46:34;3.05;;;1.80;;
24483;SDS011;12643;51.620;7.548;2023-08-12T10:49:03;1.75;;;1.63;;
24483;SDS011;12643;51.620;7.548;2023-08-12T10:51:46;3.05;;;1.63;;
24483;SDS011;12643;51.620;7.548;2023-08-12T10:54:20;2.17;;;1.70;;
24483;SDS011;12643;51.620;7.548;2023-08-12T10:57:05;1.55;;;1.35;;
24483;SDS011;12643;51.620;7.548;2023-08-12T10:59:52;1.85;;;1.70;;
24483;SDS011;12643;51.620;7.548;2023-08-12T11:02:26;3.08;;;1.55;;
24483;SDS011;12643;51.620;7.548;2023-08-12T11:04:56;1.52;;;1.40;;
24483;SDS011;12643;51.620;7.548;2023-08-12T11:07:28;1.83;;;1.60;;
24483;SDS011;12643;51.620;7.548;2023-08-12T11:10:03;1.77;;;1.38;;
24483;SDS011;12643;51.620;7.548;2023-08-12T11:12:36;6.63;;;1.85;;
24483;SDS011;12643;51.620;7.548;2023-08-12T11:15:11;4.07;;;2.05;;
24483;SDS011;12643;51.620;7.548;2023-08-12T11:17:48;1.83;;;1.60;;
24483;SDS011;12643;51.620;7.548;2023-08-12T11:20:22;2.10;;;1.60;;
24483;SDS011;12643;51.620;7.548;2023-08-12T11:22:50;2.50;;;1.65;;
24483;SDS011;12643;51.620;7.548;2023-08-12T11:25:20;2.80;;;1.80;;
24483;SDS011;12643;51.620;7.548;2023-08-12T11:27:48;5.75;;;2.67;;
24483;SDS011;12643;51.620;7.548;2023-08-12T11:30:18;3.65;;;2.10;;
24483;SDS011;12643;51.620;7.548;2023-08-12T11:32:48;2.38;;;1.83;;
24483;SDS011;12643;51.620;7.548;2023-08-12T11:35:17;5.35;;;1.70;;
24483;SDS011;12643;51.620;7.548;2023-08-12T11:37:47;2.72;;;1.70;;
24483;SDS011;12643;51.620;7.548;2023-08-12T11:40:17;1.73;;;1.63;;
24483;SDS011;12643;51.620;7.548;2023-08-12T11:42:46;3.47;;;2.35;;
24483;SDS011;12643;51.620;7.548;2023-08-12T11:45:16;5.80;;;1.88;;
24483;SDS011;12643;51.620;7.548;2023-08-12T11:47:47;1.70;;;1.60;;
24483;SDS011;12643;51.620;7.548;2023-08-12T11:50:19;1.73;;;1.63;;
24483;SDS011;12643;51.620;7.548;2023-08-12T11:52:49;3.42;;;2.45;;
24483;SDS011;12643;51.620;7.548;2023-08-12T11:55:17;3.10;;;2.30;;
24483;SDS011;12643;51.620;7.548;2023-08-12T11:57:46;4.38;;;2.60;;
24483;SDS011;12643;51.620;7.548;2023-08-12T12:00:14;4.75;;;2.08;;
24483;SDS011;12643;51.620;7.548;2023-08-12T12:02:49;3.75;;;2.55;;
24483;SDS011;12643;51.620;7.548;2023-08-12T12:05:18;4.20;;;1.65;;
24483;SDS011;12643;51.620;7.548;2023-08-12T12:07:48;2.55;;;1.35;;
24483;SDS011;12643;51.620;7.548;2023-08-12T12:10:18;2.05;;;1.30;;
24483;SDS011;12643;51.620;7.548;2023-08-12T12:12:47;1.63;;;1.52;;
24483;SDS011;12643;51.620;7.548;2023-08-12T12:15:16;1.55;;;1.13;;
24483;SDS011;12643;51.620;7.548;2023-08-12T12:17:45;2.20;;;1.00;;
24483;SDS011;12643;51.620;7.548;2023-08-12T12:20:15;2.92;;;1.30;;
24483;SDS011;12643;51.620;7.548;2023-08-12T12:22:43;1.30;;;1.20;;
24483;SDS011;12643;51.620;7.548;2023-08-12T12:25:12;1.63;;;1.17;;
24483;SDS011;12643;51.620;7.548;2023-08-12T12:27:42;2.88;;;1.23;;
24483;SDS011;12643;51.620;7.548;2023-08-12T12:30:12;2.80;;;1.38;;
24483;SDS011;12643;51.620;7.548;2023-08-12T12:32:42;1.98;;;1.20;;
24483;SDS011;12643;51.620;7.548;2023-08-12T12:35:10;1.25;;;1.15;;
24483;SDS011;12643;51.620;7.548;2023-08-12T12:37:40;1.42;;;1.20;;
24483;SDS011;12643;51.620;7.548;2023-08-12T12:40:08;1.20;;;1.10;;
24483;SDS011;12643;51.620;7.548;2023-08-12T12:42:37;1.25;;;0.85;;
24483;SDS011;12643;51.620;7.548;2023-08-12T12:45:06;2.65;;;1.10;;
24483;SDS011;12643;51.620;7.548;2023-08-12T12:47:38;1.35;;;1.17;;
24483;SDS011;12643;51.620;7.548;2023-08-12T12:50:06;0.80;;;0.80;;
24483;SDS011;12643;51.620;7.548;2023-08-12T12:52:35;0.70;;;0.60;;
24483;SDS011;12643;51.620;7.548;2023-08-12T12:55:05;1.48;;;1.17;;
24483;SDS011;12643;51.620;7.548;2023-08-12T12:57:33;1.83;;;0.70;;
24483;SDS011;12643;51.620;7.548;2023-08-12T13:00:02;1.23;;;1.10;;
24483;SDS011;12643;51.620;7.548;2023-08-12T13:02:30;3.65;;;1.20;;
24483;SDS011;12643;51.620;7.548;2023-08-12T13:04:59;1.00;;;0.90;;
24483;SDS011;12643;51.620;7.548;2023-08-12T13:07:27;0.90;;;0.80;;
24483;SDS011;12643;51.620;7.548;2023-08-12T13:09:55;0.70;;;0.70;;
24483;SDS011;12643;51.620;7.548;2023-08-12T13:12:25;1.15;;;0.93;;
24483;SDS011;12643;51.620;7.548;2023-08-12T13:14:53;1.40;;;0.98;;
24483;SDS011;12643;51.620;7.548;2023-08-12T13:17:22;1.17;;;1.00;;
24483;SDS011;12643;51.620;7.548;2023-08-12T13:19:50;2.40;;;1.17;;
24483;SDS011;12643;51.620;7.548;2023-08-12T13:22:18;1.40;;;0.93;;
24483;SDS011;12643;51.620;7.548;2023-08-12T13:24:46;2.40;;;1.65;;
24483;SDS011;12643;51.620;7.548;2023-08-12T13:27:14;2.95;;;1.85;;
24483;SDS011;12643;51.620;7.548;2023-08-12T13:29:44;4.15;;;2.50;;
24483;SDS011;12643;51.620;7.548;2023-08-12T13:32:12;3.53;;;2.05;;
24483;SDS011;12643;51.620;7.548;2023-08-12T13:34:41;4.53;;;2.60;;
24483;SDS011;12643;51.620;7.548;2023-08-12T13:37:11;4.15;;;2.60;;
24483;SDS011;12643;51.620;7.548;2023-08-12T13:39:41;5.32;;;2.70;;
24483;SDS011;12643;51.620;7.548;2023-08-12T13:42:09;6.68;;;2.83;;
24483;SDS011;12643;51.620;7.548;2023-08-12T13:44:38;4.28;;;3.13;;
24483;SDS011;12643;51.620;7.548;2023-08-12T13:47:11;4.32;;;3.15;;
24483;SDS011;12643;51.620;7.548;2023-08-12T13:49:39;5.40;;;3.25;;
24483;SDS011;12643;51.620;7.548;2023-08-12T13:52:10;3.30;;;3.00;;
24483;SDS011;12643;51.620;7.548;2023-08-12T13:54:38;3.85;;;3.55;;
24483;SDS011;12643;51.620;7.548;2023-08-12T13:57:06;4.22;;;3.75;;
24483;SDS011;12643;51.620;7.548;2023-08-12T13:59:34;4.40;;;4.00;;
24483;SDS011;12643;51.620;7.548;2023-08-12T14:02:03;4.53;;;4.13;;
24483;SDS011;12643;51.620;7.548;2023-08-12T14:04:34;11.45;;;4.95;;
24483;SDS011;12643;51.620;7.548;2023-08-12T14:07:03;4.63;;;4.30;;
24483;SDS011;12643;51.620;7.548;2023-08-12T14:09:31;5.70;;;4.40;;
24483;SDS011;12643;51.620;7.548;2023-08-12T14:11:59;6.10;;;4.45;;
24483;SDS011;12643;51.620;7.548;2023-08-12T14:14:30;6.72;;;5.07;;
24483;SDS011;12643;51.620;7.548;2023-08-12T14:16:59;15.82;;;6.03;;
24483;SDS011;12643;51.620;7.548;2023-08-12T14:19:27;6.40;;;5.70;;
24483;SDS011;12643;51.620;7.548;2023-08-12T14:21:57;5.93;;;5.40;;
24483;SDS011;12643;51.620;7.548;2023-08-12T14:24:27;6.45;;;5.22;;
24483;SDS011;12643;51.620;7.548;2023-08-12T14:26:55;5.70;;;5.22;;
24483;SDS011;12643;51.620;7.548;2023-08-12T14:29:23;6.30;;;5.80;;
24483;SDS011;12643;51.620;7.548;2023-08-12T14:31:51;8.50;;;7.70;;
24483;SDS011;12643;51.620;7.548;2023-08-12T14:34:20;8.40;;;7.57;;
24483;SDS011;12643;51.620;7.548;2023-08-12T14:36:48;10.52;;;8.27;;
24483;SDS011;12643;51.620;7.548;2023-08-12T14:39:17;8.30;;;7.45;;
24483;SDS011;12643;51.620;7.548;2023-08-12T14:41:46;10.00;;;8.65;;
24483;SDS011;12643;51.620;7.548;2023-08-12T14:44:14;9.70;;;8.55;;
24483;SDS011;12643;51.620;7.548;2023-08-12T14:46:42;11.95;;;10.15;;
24483;SDS011;12643;51.620;7.548;2023-08-12T14:49:11;11.13;;;9.95;;